Time;durP1;ratioP1;P1;durP2;ratioP2;P2;SDS_P1;SDS_P2;PMS_P1;PMS_P2;Temp;Humidity;BMP_temperature;BMP_pressure;BME280_temperature;BME280_humidity;BME280_pressure;Samples;Min_cycle;Max_cycle;Signal;HPM_P1;HPM_P2
2022/10/28 00:00:43;;;;;;;32.00;22.60;;;;;;;8.81;85.30;101224.48;127052;1279;107358;-79
2022/10/28 00:04:07;;;;;;;35.30;24.10;;;;;;;8.85;85.36;101216.34;126973;1275;106457;-80
2022/10/28 00:07:12;;;;;;;35.10;22.80;;;;;;;8.89;85.72;101220.01;127275;1278;107522;-80
2022/10/28 00:10:18;;;;;;;32.40;23.10;;;;;;;8.89;85.48;101218.34;126894;1279;107485;-77
2022/10/28 00:13:23;;;;;;;34.80;21.40;;;;;;;8.89;85.60;101217.29;126949;1278;107507;-79
2022/10/28 00:16:31;;;;;;;26.30;18.80;;;;;;;8.86;85.32;101215.39;126799;1286;107568;-78
2022/10/28 00:19:36;;;;;;;32.70;20.40;;;;;;;8.84;85.23;101210.07;126941;1279;107416;-78
2022/10/28 00:22:42;;;;;;;30.70;21.20;;;;;;;8.85;85.26;101209.64;126978;1278;107456;-78
2022/10/28 00:25:47;;;;;;;31.10;21.00;;;;;;;8.88;85.08;101208.73;126881;1279;107781;-78
2022/10/28 00:28:55;;;;;;;32.60;22.50;;;;;;;8.89;85.01;101213.77;126883;1280;107312;-78
2022/10/28 00:32:00;;;;;;;31.00;22.30;;;;;;;8.86;84.81;101209.20;126839;1272;107237;-79
2022/10/28 00:35:07;;;;;;;32.10;22.70;;;;;;;8.81;85.12;101206.53;126992;1278;108297;-78
2022/10/28 00:38:12;;;;;;;30.80;19.00;;;;;;;8.76;85.26;101204.45;126945;1279;107456;-78
2022/10/28 00:41:20;;;;;;;28.20;17.70;;;;;;;8.74;85.28;101200.73;126929;1279;107349;-78
2022/10/28 00:45:00;;;;;;;29.20;20.00;;;;;;;8.74;85.16;101194.02;126894;1278;106724;-78
2022/10/28 00:48:06;;;;;;;30.30;21.60;;;;;;;8.76;85.20;101193.83;127203;1279;107561;-78
2022/10/28 00:51:12;;;;;;;30.10;19.70;;;;;;;8.79;85.50;101187.55;127205;1271;107487;-79
2022/10/28 00:54:20;;;;;;;27.80;20.60;;;;;;;8.77;85.29;101185.02;126920;1286;107382;-77
2022/10/28 00:57:30;;;;;;;29.40;21.70;;;;;;;8.73;85.11;101186.27;126906;1279;107277;-78
2022/10/28 01:00:36;;;;;;;27.40;17.60;;;;;;;8.68;85.53;101185.92;127131;1271;107501;-77
2022/10/28 01:03:41;;;;;;;26.50;19.40;;;;;;;8.64;85.64;101183.86;126923;1279;106543;-80
2022/10/28 01:06:47;;;;;;;27.20;19.40;;;;;;;8.67;85.70;101182.08;126874;1279;107506;-78
2022/10/28 01:09:53;;;;;;;27.90;20.20;;;;;;;8.70;86.08;101176.34;127017;1278;107524;-79
2022/10/28 01:13:11;;;;;;;27.50;21.10;;;;;;;8.74;85.85;101173.43;126884;1278;107526;-80
2022/10/28 01:16:29;;;;;;;31.60;22.40;;;;;;;8.77;86.24;101174.73;126895;1279;107462;-79
2022/10/28 01:19:53;;;;;;;31.00;23.80;;;;;;;8.73;86.05;101177.69;126881;1286;107220;-79
2022/10/28 01:23:06;;;;;;;26.70;18.30;;;;;;;8.66;86.02;101176.45;126922;1286;107540;-79
2022/10/28 01:26:46;;;;;;;26.80;18.20;;;;;;;8.63;85.88;101172.95;126907;1278;107548;-79
2022/10/28 01:30:14;;;;;;;30.20;22.00;;;;;;;8.63;85.93;101172.45;126814;1272;107443;-81
2022/10/28 01:33:27;;;;;;;28.20;20.80;;;;;;;8.64;85.72;101171.45;126917;1279;107230;-77
2022/10/28 01:36:35;;;;;;;;;;;;;;;8.62;85.52;101173.55;126925;1286;106246;-80
2022/10/28 01:39:49;;;;;;;26.40;19.00;;;;;;;8.58;85.33;101170.50;126971;1280;107343;-80
2022/10/28 01:43:03;;;;;;;26.90;20.00;;;;;;;8.56;85.29;101164.46;127125;1280;107509;-78
2022/10/28 01:46:16;;;;;;;28.00;21.90;;;;;;;8.52;85.04;101165.52;126876;1279;107242;-78
2022/10/28 01:49:27;;;;;;;28.40;18.60;;;;;;;8.44;85.71;101162.22;126896;1278;105703;-77
2022/10/28 01:52:33;;;;;;;28.80;18.80;;;;;;;8.36;85.65;101158.15;127135;1279;107326;-80
2022/10/28 01:55:41;;;;;;;25.60;18.60;;;;;;;8.35;85.66;101158.79;127185;1286;107513;-79
2022/10/28 01:58:48;;;;;;;25.70;19.20;;;;;;;8.37;85.87;101153.51;127027;1279;107480;-80
2022/10/28 02:01:54;;;;;;;24.40;19.00;;;;;;;8.40;85.47;101150.96;126948;1286;107279;-80
2022/10/28 02:05:27;;;;;;;25.50;18.20;;;;;;;8.39;85.49;101147.64;127140;1272;108118;-78
2022/10/28 02:08:51;;;;;;;27.30;18.00;;;;;;;8.37;85.51;101143.33;126970;1279;107188;-78
2022/10/28 02:12:18;;;;;;;24.00;18.10;;;;;;;8.35;85.39;101139.81;126815;1278;107318;-79
2022/10/28 02:15:38;;;;;;;24.70;15.60;;;;;;;8.31;85.48;101139.42;126899;1278;107327;-78
2022/10/28 02:18:52;;;;;;;25.40;17.00;;;;;;;8.26;85.55;101139.96;126818;1278;107243;-78
2022/10/28 02:22:13;;;;;;;24.70;18.10;;;;;;;8.25;85.91;101139.47;126926;1278;105966;-78
2022/10/28 02:25:23;;;;;;;24.00;18.30;;;;;;;8.25;85.69;101135.05;126876;1278;106596;-77
2022/10/28 02:28:38;;;;;;;24.70;18.50;;;;;;;8.24;85.47;101131.71;126830;1286;105617;-79
2022/10/28 02:31:49;;;;;;;24.20;18.40;;;;;;;8.26;86.12;101123.45;126977;1286;106461;-78
2022/10/28 02:34:57;;;;;;;23.40;16.90;;;;;;;8.26;85.77;101124.69;126918;1279;107139;-77
2022/10/28 02:38:09;;;;;;;23.30;16.50;;;;;;;8.25;85.95;101120.52;126984;1279;107549;-77
2022/10/28 02:41:20;;;;;;;24.50;16.50;;;;;;;8.26;86.40;101125.02;127178;1279;107468;-79
2022/10/28 02:44:29;;;;;;;23.50;16.20;;;;;;;8.31;86.73;101123.78;127144;1279;107364;-79
2022/10/28 02:47:40;;;;;;;24.80;19.30;;;;;;;8.33;86.43;101117.77;127205;1278;107416;-79
2022/10/28 02:50:50;;;;;;;25.30;17.70;;;;;;;8.35;87.24;101116.01;127270;1279;107529;-80
2022/10/28 02:54:01;;;;;;;26.10;18.30;;;;;;;8.39;87.53;101118.89;127225;1294;106567;-78
2022/10/28 02:57:12;;;;;;;24.30;16.90;;;;;;;8.43;87.94;101117.72;127193;1279;106622;-77
2022/10/28 03:00:21;;;;;;;23.90;16.90;;;;;;;8.48;87.92;101113.67;126905;1280;107572;-81
2022/10/28 03:03:26;;;;;;;27.10;20.30;;;;;;;8.57;88.63;101111.03;126957;1278;107368;-81
2022/10/28 03:06:31;;;;;;;27.00;21.10;;;;;;;8.67;88.95;101101.55;127189;1278;107545;-81
2022/10/28 03:09:37;;;;;;;30.70;22.70;;;;;;;8.77;89.21;101099.02;127246;1288;107556;-81
2022/10/28 03:12:42;;;;;;;26.70;19.30;;;;;;;8.83;89.07;101095.48;127028;1278;107356;-81
2022/10/28 03:15:48;;;;;;;22.70;17.40;;;;;;;8.90;89.31;101088.91;127003;1278;107498;-79
2022/10/28 03:18:53;;;;;;;29.50;20.80;;;;;;;8.96;89.49;101079.95;126844;1285;107598;-79
2022/10/28 03:21:58;;;;;;;24.30;19.10;;;;;;;9.03;89.34;101079.95;127087;1285;107427;-81
2022/10/28 03:25:04;;;;;;;29.10;21.60;;;;;;;9.09;89.60;101081.41;127173;1279;106215;-80
2022/10/28 03:28:10;;;;;;;23.20;18.20;;;;;;;9.13;89.62;101080.37;126852;1272;107759;-80
2022/10/28 03:31:15;;;;;;;22.40;17.10;;;;;;;9.13;89.31;101088.14;126920;1286;106708;-80
2022/10/28 03:34:21;;;;;;;25.30;19.50;;;;;;;9.16;89.42;101088.47;127017;1279;107586;-79
2022/10/28 03:37:26;;;;;;;25.60;18.50;;;;;;;9.19;89.73;101085.55;127195;1279;107538;-79
2022/10/28 03:40:33;;;;;;;23.60;18.70;;;;;;;9.21;89.67;101085.95;127077;1272;107602;-79
2022/10/28 03:43:38;;;;;;;22.30;18.00;;;;;;;9.20;89.38;101096.84;127140;1286;107443;-78
2022/10/28 03:46:43;;;;;;;23.40;17.10;;;;;;;9.16;89.28;101089.16;127171;1286;107004;-79
2022/10/28 03:49:49;;;;;;;25.70;18.20;;;;;;;9.13;89.38;101081.58;127202;1276;107326;-79
2022/10/28 03:52:54;;;;;;;142.20;68.30;;;;;;;9.13;89.48;101081.73;127121;1286;107245;-80
2022/10/28 03:56:01;;;;;;;67.80;42.40;;;;;;;9.15;89.64;101084.81;127211;1278;107391;-80
2022/10/28 03:59:06;;;;;;;35.20;26.60;;;;;;;9.18;89.65;101079.75;127240;1279;107455;-81
2022/10/28 04:02:14;;;;;;;31.40;23.90;;;;;;;9.19;90.04;101083.21;127235;1272;107778;-82
2022/10/28 04:05:20;;;;;;;27.10;20.20;;;;;;;9.20;90.03;101084.42;127087;1285;107380;-81
2022/10/28 04:08:26;;;;;;;27.00;18.20;;;;;;;9.20;90.13;101080.47;127030;1278;106711;-80
2022/10/28 04:11:32;;;;;;;24.90;19.90;;;;;;;9.22;90.20;101078.02;127022;1286;107559;-80
2022/10/28 04:14:37;;;;;;;28.60;20.90;;;;;;;9.24;90.30;101079.27;126918;1292;107489;-81
2022/10/28 04:17:42;;;;;;;30.30;22.90;;;;;;;9.26;90.17;101079.70;127028;1278;107515;-81
2022/10/28 04:20:48;;;;;;;30.50;22.30;;;;;;;9.25;90.10;101078.10;127080;1279;107351;-80
2022/10/28 04:23:53;;;;;;;27.60;19.10;;;;;;;9.22;90.23;101079.23;126976;1272;107520;-81
2022/10/28 04:26:58;;;;;;;25.90;19.00;;;;;;;9.19;90.07;101079.14;126963;1272;107493;-79
2022/10/28 04:30:05;;;;;;;25.70;19.30;;;;;;;9.19;90.01;101068.88;126894;1279;106264;-78
2022/10/28 04:33:12;;;;;;;28.20;21.80;;;;;;;9.19;90.25;101064.98;126900;1279;106626;-79
2022/10/28 04:36:18;;;;;;;28.40;21.40;;;;;;;9.19;90.24;101057.13;127017;1279;107314;-79
2022/10/28 04:39:23;;;;;;;25.90;20.50;;;;;;;9.20;90.27;101051.60;126944;1279;106489;-79
2022/10/28 04:42:28;;;;;;;27.80;18.80;;;;;;;9.18;90.14;101047.62;126860;1279;107518;-80
2022/10/28 04:45:34;;;;;;;24.30;17.30;;;;;;;9.17;90.20;101039.93;127187;1286;107391;-80
2022/10/28 04:48:39;;;;;;;25.30;19.00;;;;;;;9.16;90.29;101036.08;127183;1279;106376;-79
2022/10/28 04:51:44;;;;;;;25.50;19.00;;;;;;;9.17;90.15;101036.75;127091;1286;107525;-81
2022/10/28 04:54:50;;;;;;;27.70;20.90;;;;;;;9.18;90.47;101033.27;127108;1278;107489;-80
2022/10/28 04:57:57;;;;;;;27.70;21.00;;;;;;;9.16;90.12;101030.20;127276;1279;106572;-81
2022/10/28 05:01:07;;;;;;;27.10;19.90;;;;;;;9.14;90.27;101026.70;127225;1286;107365;-80
2022/10/28 05:04:12;;;;;;;27.60;18.10;;;;;;;9.12;90.26;101033.92;127074;1279;107559;-80
2022/10/28 05:07:17;;;;;;;25.60;18.40;;;;;;;9.09;90.30;101033.80;127198;1288;107519;-79
2022/10/28 05:10:23;;;;;;;29.50;21.50;;;;;;;9.07;90.34;101036.42;127140;1286;107530;-79
2022/10/28 05:13:28;;;;;;;29.90;22.10;;;;;;;9.07;90.22;101035.60;127183;1273;107318;-77
2022/10/28 05:16:34;;;;;;;31.80;22.10;;;;;;;9.05;90.15;101031.48;127181;1287;107464;-76
2022/10/28 05:19:39;;;;;;;25.50;17.80;;;;;;;9.02;90.31;101024.05;126967;1279;107526;-78
2022/10/28 05:22:49;;;;;;;22.80;16.90;;;;;;;9.01;90.58;101021.45;127035;1272;107639;-77
2022/10/28 05:25:54;;;;;;;30.80;22.20;;;;;;;8.97;90.01;101020.73;127208;1278;107287;-77
2022/10/28 05:29:00;;;;;;;29.10;21.20;;;;;;;8.96;90.20;101020.65;127217;1279;107532;-77
2022/10/28 05:32:05;;;;;;;31.40;23.70;;;;;;;8.97;90.41;101007.23;127233;1278;107546;-77
2022/10/28 05:35:12;;;;;;;32.10;24.30;;;;;;;9.01;90.42;101001.58;127142;1279;107588;-77
2022/10/28 05:38:17;;;;;;;28.00;20.30;;;;;;;9.03;90.28;100998.95;127199;1284;107281;-77
2022/10/28 05:41:23;;;;;;;27.60;19.20;;;;;;;9.03;90.43;100996.98;127304;1278;107501;-77
2022/10/28 05:44:30;;;;;;;31.20;22.60;;;;;;;9.07;90.76;100997.73;127547;1278;107504;-77
2022/10/28 05:47:35;;;;;;;32.80;23.40;;;;;;;9.12;90.61;100997.91;127175;1286;107521;-77
2022/10/28 05:50:40;;;;;;;31.90;23.60;;;;;;;9.16;90.87;101004.64;127120;1279;107355;-77
2022/10/28 05:53:46;;;;;;;32.10;22.80;;;;;;;9.20;90.61;101012.36;127321;1279;105586;-76
2022/10/28 05:56:51;;;;;;;29.50;21.20;;;;;;;9.22;90.61;101015.02;127154;1286;105943;-74
2022/10/28 05:59:56;;;;;;;29.60;19.50;;;;;;;9.25;90.89;101017.76;127129;1279;107548;-74
2022/10/28 06:03:08;;;;;;;32.50;23.30;;;;;;;9.30;91.24;101017.19;127015;1286;107554;-76
2022/10/28 06:06:14;;;;;;;34.10;25.40;;;;;;;9.38;91.02;101018.52;127004;1285;107480;-75
2022/10/28 06:09:19;;;;;;;33.40;23.90;;;;;;;9.44;91.03;101013.36;126947;1271;107352;-75
2022/10/28 06:12:25;;;;;;;35.80;25.10;;;;;;;9.50;91.10;101010.02;126938;1286;107403;-76
2022/10/28 06:15:30;;;;;;;31.40;21.90;;;;;;;9.57;91.23;101017.69;126977;1278;107494;-75
2022/10/28 06:18:36;;;;;;;37.30;24.50;;;;;;;9.61;91.33;101020.83;126929;1286;107633;-75
2022/10/28 06:21:41;;;;;;;33.80;23.50;;;;;;;9.68;91.13;101022.90;127000;1279;107517;-75
2022/10/28 06:24:46;;;;;;;33.20;23.10;;;;;;;9.76;91.37;101025.45;126899;1279;107524;-75
2022/10/28 06:27:55;;;;;;;31.80;23.00;;;;;;;9.84;91.28;101029.74;126966;1279;107366;-75
2022/10/28 06:31:05;;;;;;;32.10;24.30;;;;;;;9.92;91.29;101033.88;127036;1278;107415;-75
2022/10/28 06:34:12;;;;;;;28.50;20.70;;;;;;;9.98;91.32;101030.55;126937;1286;109256;-75
2022/10/28 06:37:17;;;;;;;25.20;18.10;;;;;;;10.04;91.07;101032.55;126959;1286;107532;-75
2022/10/28 06:40:23;;;;;;;32.70;22.30;;;;;;;10.09;91.43;101035.14;126844;1278;107559;-74
2022/10/28 06:43:28;;;;;;;29.00;21.70;;;;;;;10.16;91.16;101031.70;126897;1279;107575;-75
2022/10/28 06:46:34;;;;;;;31.70;22.90;;;;;;;10.21;91.48;101026.06;126923;1279;107370;-74
2022/10/28 06:49:39;;;;;;;31.90;23.30;;;;;;;10.26;91.37;101027.27;126981;1296;107518;-74
2022/10/28 06:52:45;;;;;;;29.60;20.50;;;;;;;10.27;91.42;101024.74;126894;1286;107803;-73
2022/10/28 06:55:55;;;;;;;29.90;20.10;;;;;;;10.25;91.10;101025.60;126931;1279;107268;-74
2022/10/28 06:59:00;;;;;;;31.50;22.50;;;;;;;10.23;91.16;101021.95;127103;1278;107490;-73
2022/10/28 07:02:09;;;;;;;29.00;22.00;;;;;;;10.27;91.28;101021.67;126986;1286;107574;-74
2022/10/28 07:05:15;;;;;;;34.80;24.10;;;;;;;10.29;91.12;101019.73;126987;1278;107312;-73
2022/10/28 07:08:20;;;;;;;34.00;24.90;;;;;;;10.33;91.46;101022.11;126919;1286;109154;-74
2022/10/28 07:11:26;;;;;;;31.30;21.60;;;;;;;10.37;91.79;101024.92;126928;1278;107430;-75
2022/10/28 07:14:33;;;;;;;28.90;20.30;;;;;;;10.44;91.53;101024.55;126891;1278;107343;-74
2022/10/28 07:17:39;;;;;;;33.80;23.70;;;;;;;10.52;91.64;101018.69;126944;1285;107369;-75
2022/10/28 07:20:44;;;;;;;32.50;23.60;;;;;;;10.61;91.95;101016.24;126925;1279;107525;-71
2022/10/28 07:23:49;;;;;;;35.50;24.40;;;;;;;10.70;91.79;101017.94;127031;1284;107538;-71
2022/10/28 07:26:55;;;;;;;37.50;23.30;;;;;;;10.77;91.99;101014.89;126896;1279;106569;-76
2022/10/28 07:30:00;;;;;;;30.50;21.70;;;;;;;10.80;91.79;101019.17;126949;1280;107487;-76
2022/10/28 07:33:07;;;;;;;30.90;21.40;;;;;;;10.83;91.88;101021.96;126934;1294;107474;-76
2022/10/28 07:36:13;;;;;;;33.70;23.70;;;;;;;10.87;92.02;101019.09;126914;1278;107554;-77
2022/10/28 07:39:19;;;;;;;33.00;24.30;;;;;;;10.94;92.09;101016.69;126883;1279;107491;-75
2022/10/28 07:42:24;;;;;;;34.00;24.00;;;;;;;11.02;92.09;101013.92;127018;1290;109234;-75
2022/10/28 07:45:29;;;;;;;32.20;23.30;;;;;;;11.11;92.12;101013.27;127445;1278;107496;-80
2022/10/28 07:48:36;;;;;;;34.70;23.00;;;;;;;11.20;92.31;101014.75;127218;1272;107087;-78
2022/10/28 07:51:41;;;;;;;33.40;23.70;;;;;;;11.29;92.21;101013.93;127067;1272;107780;-79
2022/10/28 07:54:47;;;;;;;33.70;24.10;;;;;;;11.42;92.26;101009.59;126933;1279;107585;-79
2022/10/28 07:57:52;;;;;;;38.30;25.90;;;;;;;11.61;92.24;101004.64;127098;1286;107490;-77
2022/10/28 08:01:01;;;;;;;37.40;27.20;;;;;;;11.81;92.35;100994.05;127076;1286;107532;-76
2022/10/28 08:04:06;;;;;;;35.20;25.30;;;;;;;11.98;92.56;100990.38;126896;1279;107393;-75
2022/10/28 08:07:12;;;;;;;31.90;22.80;;;;;;;12.14;92.50;100989.78;127118;1279;107505;-76
2022/10/28 08:10:18;;;;;;;33.30;23.70;;;;;;;12.29;92.52;100987.31;126930;1278;107468;-75
2022/10/28 08:13:23;;;;;;;33.40;24.20;;;;;;;12.44;92.64;100984.91;126840;1279;107499;-76
2022/10/28 08:16:29;;;;;;;33.40;25.80;;;;;;;12.55;92.52;100988.30;127018;1271;107360;-80
2022/10/28 08:19:34;;;;;;;32.00;24.30;;;;;;;12.59;92.46;100983.69;126879;1280;107439;-78
2022/10/28 08:22:40;;;;;;;32.70;22.40;;;;;;;12.61;92.61;100978.67;127225;1286;108614;-78
2022/10/28 08:25:52;;;;;;;31.10;23.30;;;;;;;12.64;92.54;100975.02;127041;1279;107393;-84
2022/10/28 08:28:57;;;;;;;;;;;;;;;12.67;92.43;100983.11;127021;1278;108169;-77
2022/10/28 08:32:02;;;;;;;34.60;23.90;;;;;;;12.71;92.63;100987.35;126868;1278;107513;-74
2022/10/28 08:35:09;;;;;;;31.90;24.30;;;;;;;12.78;92.76;100986.70;126988;1279;107491;-75
2022/10/28 08:38:15;;;;;;;35.20;24.30;;;;;;;12.82;92.82;100988.75;126950;1279;105897;-77
2022/10/28 08:41:44;;;;;;;28.10;20.30;;;;;;;12.90;93.20;100991.02;126910;1285;109043;-74
2022/10/28 08:45:20;;;;;;;30.80;21.80;;;;;;;13.01;93.17;100994.94;127176;1278;107382;-82
2022/10/28 08:48:31;;;;;;;29.70;23.20;;;;;;;13.07;93.14;100995.61;126887;1286;107362;-78
2022/10/28 08:51:40;;;;;;;33.70;24.20;;;;;;;13.12;93.04;100995.81;126926;1278;107172;-81
2022/10/28 08:54:50;;;;;;;32.90;22.50;;;;;;;13.17;93.05;100992.27;126965;1272;107536;-77
2022/10/28 08:58:00;;;;;;;31.20;22.30;;;;;;;13.23;93.09;100989.56;127011;1286;107199;-75
2022/10/28 09:01:09;;;;;;;29.90;21.30;;;;;;;13.30;93.15;100988.32;126986;1280;107364;-75
2022/10/28 09:04:35;;;;;;;27.80;21.10;;;;;;;13.39;92.90;100986.83;127108;1279;106398;-75
2022/10/28 09:07:41;;;;;;;32.10;23.70;;;;;;;13.47;93.06;100984.17;127720;1284;107549;-76
2022/10/28 09:11:11;;;;;;;28.70;20.70;;;;;;;13.57;93.27;100984.05;126944;1279;107450;-76
2022/10/28 09:14:50;;;;;;;26.70;18.20;;;;;;;13.67;92.91;100989.27;126844;1293;107559;-79
2022/10/28 09:17:58;;;;;;;27.10;19.60;;;;;;;13.78;92.65;100994.83;127029;1285;108106;-76
2022/10/28 09:21:11;;;;;;;28.30;20.20;;;;;;;13.87;92.65;101000.50;126967;1285;107470;-75
2022/10/28 09:24:20;;;;;;;24.80;19.30;;;;;;;13.96;92.52;100993.89;127061;1286;108081;-77
2022/10/28 09:27:50;;;;;;;27.80;20.20;;;;;;;14.02;92.65;100983.67;126939;1279;107394;-78
2022/10/28 09:31:05;;;;;;;25.30;18.30;;;;;;;14.05;92.26;100983.63;126946;1286;107064;-78
2022/10/28 09:34:23;;;;;;;26.30;18.50;;;;;;;14.11;92.07;100974.27;126913;1279;107356;-75
2022/10/28 09:37:31;;;;;;;26.10;20.20;;;;;;;14.20;92.25;100969.79;126953;1278;107208;-75
2022/10/28 09:40:40;;;;;;;28.10;19.70;;;;;;;14.26;91.82;100969.11;126855;1279;108112;-76
2022/10/28 09:43:52;;;;;;;27.50;20.10;;;;;;;14.31;92.01;100962.90;126837;1280;107493;-76
2022/10/28 09:47:00;;;;;;;26.30;18.00;;;;;;;14.36;91.87;100960.04;126963;1282;107276;-79
2022/10/28 09:50:15;;;;;;;24.20;16.20;;;;;;;14.41;92.00;100954.06;126933;1279;107420;-80
2022/10/28 09:53:26;;;;;;;24.50;18.30;;;;;;;14.49;92.14;100949.93;127150;1296;109326;-78
2022/10/28 09:56:32;;;;;;;28.00;19.40;;;;;;;14.60;91.92;100947.58;127156;1278;107682;-77
2022/10/28 09:59:38;;;;;;;24.50;18.60;;;;;;;14.70;91.67;100946.25;126991;1279;106728;-77
2022/10/28 10:02:44;;;;;;;26.50;19.60;;;;;;;14.78;91.71;100947.48;127152;1280;107644;-76
2022/10/28 10:05:54;;;;;;;27.20;18.80;;;;;;;14.82;91.35;100947.14;127212;1279;107547;-75
2022/10/28 10:09:00;;;;;;;23.30;16.90;;;;;;;14.86;91.49;100946.05;127017;1278;107264;-76
2022/10/28 10:12:10;;;;;;;25.60;19.20;;;;;;;14.94;91.44;100946.81;126935;1284;109090;-74
2022/10/28 10:15:21;;;;;;;24.80;18.30;;;;;;;15.02;91.38;100944.84;127203;1285;107135;-76
2022/10/28 10:18:31;;;;;;;26.70;19.80;;;;;;;15.10;91.28;100943.79;127119;1275;108649;-78
2022/10/28 10:21:46;;;;;;;26.10;18.50;;;;;;;15.16;91.19;100942.64;127224;1279;107549;-77
2022/10/28 10:24:51;;;;;;;24.90;17.20;;;;;;;15.20;90.92;100941.84;127011;1286;107394;-76
2022/10/28 10:27:59;;;;;;;23.50;17.30;;;;;;;15.23;91.03;100938.63;127026;1285;107578;-75
2022/10/28 10:31:08;;;;;;;23.60;17.70;;;;;;;15.28;90.80;100937.22;126769;1289;107491;-74
2022/10/28 10:34:23;;;;;;;23.30;17.40;;;;;;;15.35;90.70;100936.33;126883;1279;107497;-77
2022/10/28 10:37:30;;;;;;;21.20;17.30;;;;;;;15.41;90.80;100929.86;126596;1279;164949;-78
2022/10/28 10:40:46;;;;;;;23.40;18.20;;;;;;;15.48;90.74;100928.24;126795;1295;107456;-78
2022/10/28 10:43:52;;;;;;;25.00;17.80;;;;;;;15.51;90.57;100929.15;126774;1278;108081;-79
2022/10/28 10:47:23;;;;;;;22.00;17.00;;;;;;;15.55;90.51;100930.52;127260;1287;107553;-77
2022/10/28 10:50:31;;;;;;;21.80;16.70;;;;;;;15.61;90.41;100930.95;126989;1278;108394;-77
2022/10/28 10:53:39;;;;;;;20.40;15.30;;;;;;;15.68;90.46;100929.40;126880;1279;107601;-78
2022/10/28 10:56:45;;;;;;;21.40;16.80;;;;;;;15.76;90.34;100929.31;126659;1285;106420;-78
2022/10/28 10:59:53;;;;;;;22.20;16.80;;;;;;;15.84;90.27;100928.91;126819;1286;107541;-78
2022/10/28 11:03:01;;;;;;;23.30;16.00;;;;;;;15.89;90.09;100929.44;126932;1285;107084;-80
2022/10/28 11:06:18;;;;;;;18.20;13.40;;;;;;;15.92;90.19;100930.91;126829;1278;107403;-79
2022/10/28 11:09:30;;;;;;;19.50;14.80;;;;;;;15.99;90.04;100930.55;126898;1285;107228;-78
2022/10/28 11:12:37;;;;;;;21.10;16.70;;;;;;;16.05;90.02;100925.56;126751;1275;106739;-77
2022/10/28 11:15:43;;;;;;;21.20;16.50;;;;;;;16.14;89.87;100921.32;126744;1286;107464;-78
2022/10/28 11:18:51;;;;;;;22.30;16.70;;;;;;;16.20;89.67;100910.77;126779;1279;107390;-77
2022/10/28 11:22:10;;;;;;;19.20;14.20;;;;;;;16.24;89.74;100910.16;126806;1278;107369;-79
2022/10/28 11:25:36;;;;;;;20.30;14.80;;;;;;;16.26;89.57;100908.64;126849;1279;107333;-78
2022/10/28 11:29:17;;;;;;;19.00;14.90;;;;;;;16.33;89.54;100909.27;126835;1279;107691;-79
2022/10/28 11:32:36;;;;;;;17.90;14.30;;;;;;;16.44;89.49;100895.29;127176;1283;107497;-81
2022/10/28 11:35:53;;;;;;;21.10;16.10;;;;;;;16.52;89.34;100891.55;126918;1278;107279;-78
2022/10/28 11:39:25;;;;;;;22.30;16.60;;;;;;;16.60;89.34;100889.81;127024;1279;107519;-77
2022/10/28 11:42:39;;;;;;;19.40;15.10;;;;;;;16.68;89.33;100887.81;127117;1280;107300;-79
2022/10/28 11:45:50;;;;;;;17.10;13.70;;;;;;;16.76;89.16;100885.67;126922;1285;107372;-76
2022/10/28 11:49:09;;;;;;;18.80;14.50;;;;;;;16.81;88.84;100885.46;126992;1283;107425;-78
2022/10/28 11:52:27;;;;;;;21.00;14.90;;;;;;;16.88;88.86;100884.48;127073;1286;106822;-78
2022/10/28 11:55:39;;;;;;;18.70;14.70;;;;;;;16.94;88.69;100881.15;126910;1286;107610;-77
2022/10/28 11:58:51;;;;;;;16.90;13.70;;;;;;;16.93;88.44;100878.93;127097;1286;106449;-78
2022/10/28 12:02:15;;;;;;;19.30;15.30;;;;;;;16.93;88.45;100885.16;127604;1275;107492;-77
2022/10/28 12:05:27;;;;;;;18.70;13.00;;;;;;;16.93;88.56;100881.96;127156;1275;107860;-80
2022/10/28 12:08:51;;;;;;;19.50;14.60;;;;;;;16.94;88.38;100880.75;127238;1284;106875;-80
2022/10/28 12:12:09;;;;;;;21.80;14.50;;;;;;;16.96;88.21;100879.11;127187;1278;107348;-78
2022/10/28 12:15:24;;;;;;;17.70;14.20;;;;;;;16.99;88.14;100871.84;127089;1286;106826;-78
2022/10/28 12:18:41;;;;;;;19.10;14.50;;;;;;;17.01;88.01;100869.27;126906;1286;107394;-78
2022/10/28 12:21:53;;;;;;;19.60;14.50;;;;;;;17.02;87.89;100865.61;127147;1276;107418;-78
2022/10/28 12:25:03;;;;;;;18.60;14.80;;;;;;;17.01;87.90;100864.80;127202;1278;107124;-78
2022/10/28 12:28:18;;;;;;;19.30;12.90;;;;;;;17.00;87.72;100860.86;127138;1279;107110;-79
2022/10/28 12:31:26;;;;;;;18.00;12.80;;;;;;;17.00;87.81;100855.80;126992;1279;108201;-80
2022/10/28 12:34:35;;;;;;;18.00;12.70;;;;;;;17.02;87.70;100848.86;126972;1280;107329;-79
2022/10/28 12:37:46;;;;;;;16.20;12.90;;;;;;;17.06;87.69;100845.02;126913;1283;106520;-80
2022/10/28 12:41:01;;;;;;;16.20;12.60;;;;;;;17.10;87.57;100839.80;126844;1286;107530;-79
2022/10/28 12:44:13;;;;;;;17.60;13.40;;;;;;;17.13;87.49;100833.95;126872;1286;107380;-78
2022/10/28 12:47:21;;;;;;;;;;;;;;;17.15;87.51;100828.30;126946;1279;107672;-77
2022/10/28 12:50:34;;;;;;;16.80;12.70;;;;;;;17.15;87.57;100823.10;126945;1278;107534;-78
2022/10/28 12:53:46;;;;;;;17.00;12.20;;;;;;;17.14;87.65;100819.85;126866;1279;107383;-78
2022/10/28 12:56:52;;;;;;;;;;;;;;;17.12;87.47;100816.46;126941;1279;107527;-80
2022/10/28 13:00:03;;;;;;;15.60;10.90;;;;;;;17.09;87.39;100815.52;126843;1296;107611;-78
2022/10/28 13:03:14;;;;;;;15.10;12.00;;;;;;;17.12;87.31;100819.87;126871;1279;107332;-78
2022/10/28 13:06:40;;;;;;;19.80;12.50;;;;;;;17.16;87.13;100821.68;126931;1285;107405;-79
2022/10/28 13:09:57;;;;;;;72.20;53.70;;;;;;;17.21;87.00;100824.13;126901;1276;107448;-79
2022/10/28 13:13:22;;;;;;;23.60;16.90;;;;;;;17.24;87.02;100828.25;126898;1278;107107;-77
2022/10/28 13:16:50;;;;;;;28.70;18.90;;;;;;;17.25;86.93;100833.61;126919;1286;105675;-80
2022/10/28 13:20:08;;;;;;;13.60;10.30;;;;;;;17.23;86.86;100835.80;126935;1285;107461;-78
2022/10/28 13:23:21;;;;;;;14.30;9.40;;;;;;;17.22;86.84;100835.17;126911;1286;106634;-75
2022/10/28 13:26:31;;;;;;;13.30;10.10;;;;;;;17.25;86.75;100833.04;127048;1284;107494;-77
2022/10/28 13:29:38;;;;;;;16.20;12.50;;;;;;;17.34;86.75;100829.85;126962;1285;107382;-77
2022/10/28 13:32:43;;;;;;;40.80;28.00;;;;;;;17.42;86.61;100831.80;127445;1280;107241;-77
2022/10/28 13:35:50;;;;;;;26.40;18.90;;;;;;;17.43;86.38;100830.11;129129;1282;106632;-77
2022/10/28 13:38:59;;;;;;;41.20;25.30;;;;;;;17.45;86.29;100821.23;126903;1278;107536;-77
2022/10/28 13:42:54;;;;;;;34.80;20.00;;;;;;;17.45;86.33;100824.56;126859;1286;107319;-76
2022/10/28 13:45:59;;;;;;;23.50;13.80;;;;;;;17.45;86.36;100829.55;126830;1279;107333;-77
2022/10/28 13:49:23;;;;;;;16.40;11.20;;;;;;;17.43;86.26;100830.90;126814;1280;107658;-76
2022/10/28 13:52:29;;;;;;;14.20;9.50;;;;;;;17.42;86.24;100844.00;126912;1278;108058;-77
2022/10/28 13:55:44;;;;;;;29.80;18.70;;;;;;;17.42;86.12;100852.64;126904;1280;108844;-77
2022/10/28 13:58:58;;;;;;;91.40;64.00;;;;;;;17.39;86.08;100859.48;126990;1285;107184;-77
2022/10/28 14:02:20;;;;;;;118.20;60.90;;;;;;;17.34;86.04;100863.80;126928;1285;107390;-77
2022/10/28 14:05:48;;;;;;;45.20;24.40;;;;;;;17.28;86.18;100872.98;126885;1283;107634;-79
2022/10/28 14:08:53;;;;;;;18.30;12.60;;;;;;;17.21;86.19;100869.49;126982;1286;107392;-77
2022/10/28 14:12:38;;;;;;;73.60;44.70;;;;;;;17.15;86.20;100865.69;126890;1279;107480;-77